createdAt,value
2019-05-05T00:03:11.922Z,14.57
2019-05-05T00:06:19.530Z,14.00
2019-05-05T00:09:26.981Z,14.40
2019-05-05T00:12:52.219Z,12.93
2019-05-05T00:16:27.508Z,12.70
2019-05-05T00:19:35.898Z,13.40
2019-05-05T00:22:45.419Z,13.43
2019-05-05T00:25:52.778Z,13.17
2019-05-05T00:29:00.281Z,13.90
2019-05-05T00:32:08.000Z,12.50
2019-05-05T00:35:17.089Z,13.27
2019-05-05T00:38:24.970Z,14.53
2019-05-05T00:41:34.501Z,14.87
2019-05-05T00:44:41.729Z,11.87
2019-05-05T00:47:54.547Z,14.20
2019-05-05T00:51:04.659Z,13.20
2019-05-05T00:54:12.109Z,11.50
2019-05-05T00:57:19.585Z,11.70
2019-05-05T01:00:50.295Z,8.57
2019-05-05T01:03:57.893Z,9.50
2019-05-05T01:07:05.410Z,10.60
2019-05-05T01:10:14.294Z,10.00
2019-05-05T01:13:21.902Z,10.47
2019-05-05T01:16:29.355Z,10.90
2019-05-05T01:19:36.775Z,9.97
2019-05-05T01:22:44.837Z,9.77
2019-05-05T01:25:54.264Z,8.47
2019-05-05T01:29:01.443Z,8.50
2019-05-05T01:32:12.452Z,8.70
2019-05-05T01:35:19.895Z,8.33
2019-05-05T01:38:34.227Z,9.40
2019-05-05T01:41:46.965Z,7.50
2019-05-05T01:44:55.241Z,9.17
2019-05-05T01:48:04.923Z,8.47
2019-05-05T01:51:14.337Z,7.50
2019-05-05T01:54:22.118Z,7.90
2019-05-05T01:57:29.560Z,7.57
2019-05-05T02:00:37.063Z,8.77
2019-05-05T02:03:44.619Z,7.17
2019-05-05T02:06:52.156Z,7.30
2019-05-05T02:09:59.899Z,8.43
2019-05-05T02:13:08.652Z,8.40
2019-05-05T02:16:16.261Z,7.20
2019-05-05T02:19:25.016Z,7.40
2019-05-05T02:22:32.713Z,6.97
2019-05-05T02:25:40.311Z,7.40
2019-05-05T02:29:06.715Z,8.70
2019-05-05T02:32:31.699Z,8.00
2019-05-05T02:35:39.178Z,7.83
2019-05-05T02:38:48.417Z,9.37
2019-05-05T02:41:57.342Z,8.30
2019-05-05T02:45:07.279Z,8.03
2019-05-05T02:48:16.239Z,8.23
2019-05-05T02:51:26.065Z,8.93
2019-05-05T02:54:35.871Z,8.87
2019-05-05T02:57:43.962Z,9.57
2019-05-05T03:01:10.581Z,8.77
2019-05-05T03:04:19.193Z,10.43
2019-05-05T03:07:28.461Z,9.23
2019-05-05T03:10:36.633Z,11.30
2019-05-05T03:13:46.771Z,14.50
2019-05-05T03:16:55.025Z,15.37
2019-05-05T03:20:04.102Z,13.37
2019-05-05T03:23:13.662Z,12.00
2019-05-05T03:26:23.387Z,10.97
2019-05-05T03:29:31.101Z,11.77
2019-05-05T03:32:38.644Z,16.13
2019-05-05T03:35:47.109Z,11.93
2019-05-05T03:38:55.899Z,12.43
2019-05-05T03:42:33.784Z,14.23
2019-05-05T03:45:50.299Z,16.27
2019-05-05T03:48:57.972Z,19.33
2019-05-05T03:52:05.668Z,19.10
2019-05-05T03:55:13.842Z,18.77
2019-05-05T03:58:21.503Z,15.30
2019-05-05T04:02:07.833Z,14.53
2019-05-05T04:05:40.111Z,15.80
2019-05-05T04:08:47.782Z,17.60
2019-05-05T04:11:55.409Z,17.23
2019-05-05T04:15:03.742Z,17.73
2019-05-05T04:18:19.485Z,16.90
2019-05-05T04:21:33.582Z,17.50
2019-05-05T04:24:36.308Z,16.30
2019-05-05T04:27:44.500Z,15.30
2019-05-05T04:30:53.660Z,16.90
2019-05-05T04:34:01.197Z,18.83
2019-05-05T04:37:08.859Z,19.90
2019-05-05T04:40:16.475Z,16.07
2019-05-05T04:43:24.646Z,13.10
2019-05-05T04:46:33.847Z,10.73
2019-05-05T04:49:47.231Z,13.17
2019-05-05T04:52:56.629Z,12.30
2019-05-05T04:56:04.276Z,12.50
2019-05-05T04:59:14.290Z,19.87
2019-05-05T05:02:34.909Z,11.77
2019-05-05T05:06:00.338Z,12.50
2019-05-05T05:09:08.377Z,11.57
2019-05-05T05:12:17.560Z,11.20
2019-05-05T05:15:25.105Z,13.87
2019-05-05T05:18:34.329Z,13.70
2019-05-05T05:21:43.712Z,14.33
2019-05-05T05:24:51.317Z,13.13
2019-05-05T05:27:58.930Z,15.00
2019-05-05T05:31:06.394Z,13.83
2019-05-05T05:34:14.803Z,12.80
2019-05-05T05:37:24.007Z,12.43
2019-05-05T05:40:50.591Z,13.83
2019-05-05T05:44:08.330Z,17.77
2019-05-05T05:47:30.017Z,16.63
2019-05-05T05:50:44.202Z,18.83
2019-05-05T05:53:54.359Z,13.73
2019-05-05T05:57:04.160Z,13.57
2019-05-05T06:00:11.617Z,15.33
2019-05-05T06:03:19.433Z,14.90
2019-05-05T06:06:27.214Z,14.90
2019-05-05T06:09:34.769Z,18.87
2019-05-05T06:12:42.304Z,15.47
2019-05-05T06:15:50.543Z,14.50
2019-05-05T06:18:58.098Z,15.20
2019-05-05T06:22:05.541Z,14.53
2019-05-05T06:25:15.921Z,17.30
2019-05-05T06:28:23.644Z,16.90
2019-05-05T06:31:31.308Z,17.53
2019-05-05T06:34:38.787Z,23.17
2019-05-05T06:37:55.577Z,21.77
2019-05-05T06:41:23.717Z,18.40
2019-05-05T06:44:35.295Z,23.80
2019-05-05T06:47:44.499Z,25.43
2019-05-05T06:50:54.296Z,22.63
2019-05-05T06:54:01.239Z,23.60
2019-05-05T06:57:08.701Z,20.13
2019-05-05T07:00:16.177Z,21.33
2019-05-05T07:03:24.297Z,23.27
2019-05-05T07:06:31.878Z,18.60
2019-05-05T07:09:39.483Z,22.73
2019-05-05T07:12:46.913Z,20.93
2019-05-05T07:15:54.614Z,33.77
2019-05-05T07:19:04.230Z,28.30
2019-05-05T07:22:13.862Z,23.50
2019-05-05T07:25:20.709Z,22.93
2019-05-05T07:28:28.339Z,31.87
2019-05-05T07:31:35.804Z,25.37
2019-05-05T07:35:00.909Z,22.10
2019-05-05T07:38:08.788Z,20.70
2019-05-05T07:41:16.306Z,22.20
2019-05-05T07:44:29.298Z,21.37
2019-05-05T07:47:34.226Z,25.77
2019-05-05T07:50:43.651Z,22.30
2019-05-05T07:53:50.940Z,24.40
2019-05-05T07:56:58.385Z,23.00
2019-05-05T08:00:06.586Z,22.30
2019-05-05T08:03:14.468Z,22.20
2019-05-05T08:06:23.698Z,21.97
2019-05-05T08:09:31.464Z,20.47
2019-05-05T08:12:39.160Z,21.47
2019-05-05T08:15:59.032Z,19.10
2019-05-05T08:19:25.318Z,19.47
2019-05-05T08:22:33.988Z,29.90
2019-05-05T08:25:54.005Z,24.60
2019-05-05T08:29:23.932Z,19.53
2019-05-05T08:32:35.669Z,22.98
2019-05-05T08:35:44.832Z,28.50
2019-05-05T08:38:54.603Z,24.73
2019-05-05T08:42:04.126Z,24.90
2019-05-05T08:45:13.686Z,23.53
2019-05-05T08:48:20.550Z,29.40
2019-05-05T08:51:28.036Z,31.20
2019-05-05T08:54:35.470Z,22.87
2019-05-05T08:57:44.644Z,30.50
2019-05-05T09:00:53.644Z,26.60
2019-05-05T09:04:01.224Z,30.63
2019-05-05T09:07:08.958Z,36.27
2019-05-05T09:10:16.746Z,32.70
2019-05-05T09:13:24.746Z,35.43
2019-05-05T09:16:33.586Z,22.70
2019-05-05T09:19:41.070Z,23.10
2019-05-05T09:22:48.611Z,23.37
2019-05-05T09:26:07.584Z,21.60
2019-05-05T09:29:25.176Z,21.47
2019-05-05T09:32:34.405Z,18.43
2019-05-05T09:35:43.698Z,20.70
2019-05-05T09:38:54.081Z,18.17
2019-05-05T09:42:03.944Z,19.40
2019-05-05T09:45:10.795Z,20.50
2019-05-05T09:48:18.278Z,18.60
2019-05-05T09:51:25.746Z,24.20
2019-05-05T09:54:34.559Z,21.27
2019-05-05T09:57:43.815Z,20.80
2019-05-05T10:00:54.566Z,21.17
2019-05-05T10:04:11.173Z,21.30
2019-05-05T10:07:18.664Z,24.70
2019-05-05T10:10:26.142Z,20.90
2019-05-05T10:13:33.856Z,22.33
2019-05-05T10:16:42.324Z,21.80
2019-05-05T10:19:49.952Z,23.33
2019-05-05T10:22:57.608Z,22.60
2019-05-05T10:26:08.148Z,22.40
2019-05-05T10:29:15.753Z,23.70
2019-05-05T10:32:24.516Z,25.10
2019-05-05T10:35:34.262Z,24.57
2019-05-05T10:38:44.561Z,29.37
2019-05-05T10:41:53.503Z,33.30
2019-05-05T10:45:01.255Z,27.53
2019-05-05T10:48:10.107Z,52.93
2019-05-05T10:51:17.747Z,36.07
2019-05-05T10:54:25.204Z,28.10
2019-05-05T10:57:34.120Z,23.17
2019-05-05T11:00:47.638Z,21.10
2019-05-05T11:03:55.099Z,15.60
2019-05-05T11:07:04.181Z,16.70
2019-05-05T11:10:14.145Z,19.53
2019-05-05T11:13:23.874Z,19.10
2019-05-05T11:16:32.240Z,19.40
2019-05-05T11:19:39.668Z,18.83
2019-05-05T11:22:47.120Z,15.73
2019-05-05T11:25:54.642Z,16.43
2019-05-05T11:29:04.131Z,16.70
2019-05-05T11:32:17.689Z,16.77
2019-05-05T11:35:26.629Z,17.63
2019-05-05T11:38:34.126Z,18.67
2019-05-05T11:41:43.885Z,19.23
2019-05-05T11:44:52.442Z,18.83
2019-05-05T11:48:00.572Z,18.27
2019-05-05T11:51:08.455Z,15.70
2019-05-05T11:54:16.060Z,11.63
2019-05-05T11:57:23.961Z,16.10
2019-05-05T12:00:31.958Z,14.03
2019-05-05T12:03:39.514Z,12.23
2019-05-05T12:06:47.188Z,11.73
2019-05-05T12:09:57.446Z,12.10
2019-05-05T12:13:05.586Z,10.50
2019-05-05T12:16:30.062Z,9.97
2019-05-05T12:19:38.574Z,9.87
2019-05-05T12:22:46.063Z,11.20
2019-05-05T12:26:24.439Z,9.97
2019-05-05T12:29:36.309Z,9.10
2019-05-05T12:32:45.388Z,7.90
2019-05-05T12:35:53.950Z,9.17
2019-05-05T12:39:04.532Z,9.40
2019-05-05T12:42:14.157Z,12.57
2019-05-05T12:45:24.329Z,9.53
2019-05-05T12:48:34.688Z,9.07
2019-05-05T12:51:43.557Z,8.03
2019-05-05T12:54:51.211Z,6.07
2019-05-05T12:57:58.791Z,7.23
2019-05-05T13:01:10.784Z,7.90
2019-05-05T13:04:18.520Z,7.23
2019-05-05T13:07:26.178Z,10.30
2019-05-05T13:10:33.819Z,9.13
2019-05-05T13:13:41.341Z,11.67
2019-05-05T13:16:52.957Z,11.93
2019-05-05T13:20:06.769Z,10.13
2019-05-05T13:23:42.156Z,8.93
2019-05-05T13:26:54.984Z,7.20
2019-05-05T13:30:04.330Z,9.50
2019-05-05T13:33:14.037Z,6.60
2019-05-05T13:36:21.252Z,5.90
2019-05-05T13:39:28.899Z,5.93
2019-05-05T13:42:36.701Z,7.73
2019-05-05T13:45:57.390Z,7.60
2019-05-05T13:49:36.017Z,6.50
2019-05-05T13:52:44.212Z,8.60
2019-05-05T13:55:51.933Z,9.23
2019-05-05T13:58:59.482Z,9.80
2019-05-05T14:02:07.457Z,7.37
2019-05-05T14:05:15.081Z,11.00
2019-05-05T14:08:23.742Z,13.60
2019-05-05T14:11:33.955Z,15.77
2019-05-05T14:14:41.730Z,8.30
2019-05-05T14:17:49.737Z,11.10
2019-05-05T14:20:57.578Z,7.80
2019-05-05T14:24:18.604Z,9.10
2019-05-05T14:27:26.088Z,12.63
2019-05-05T14:30:40.905Z,7.07
2019-05-05T14:33:51.210Z,8.80
2019-05-05T14:37:16.661Z,10.70
2019-05-05T14:40:24.096Z,7.97
2019-05-05T14:43:31.707Z,9.20
2019-05-05T14:46:39.561Z,7.20
2019-05-05T14:49:47.187Z,9.67
2019-05-05T14:52:54.745Z,7.97
2019-05-05T14:56:04.471Z,10.47
2019-05-05T14:59:11.769Z,8.03
2019-05-05T15:02:19.321Z,9.53
2019-05-05T15:05:47.646Z,8.07
2019-05-05T15:09:16.941Z,7.40
2019-05-05T15:12:34.047Z,7.63
2019-05-05T15:15:41.730Z,7.23
2019-05-05T15:18:49.360Z,8.80
2019-05-05T15:21:57.067Z,8.33
2019-05-05T15:25:05.869Z,8.47
2019-05-05T15:28:14.177Z,7.90
2019-05-05T15:31:23.659Z,10.00
2019-05-05T15:34:30.808Z,8.57
2019-05-05T15:37:38.243Z,8.57
2019-05-05T15:40:48.071Z,6.03
2019-05-05T15:43:55.128Z,8.20
2019-05-05T15:47:02.641Z,10.63
2019-05-05T15:50:10.399Z,10.47
2019-05-05T15:53:17.946Z,12.63
2019-05-05T15:56:25.426Z,10.20
2019-05-05T15:59:34.302Z,11.00
2019-05-05T16:02:43.980Z,7.90
2019-05-05T16:05:51.009Z,6.67
2019-05-05T16:08:58.542Z,8.90
2019-05-05T16:12:06.217Z,6.40
2019-05-05T16:15:30.903Z,8.73
2019-05-05T16:19:05.639Z,8.90
2019-05-05T16:22:09.617Z,8.20
2019-05-05T16:25:17.531Z,9.17
2019-05-05T16:28:25.217Z,8.37
2019-05-05T16:31:34.222Z,8.73
2019-05-05T16:34:42.169Z,8.50
2019-05-05T16:37:49.695Z,6.90
2019-05-05T16:40:57.249Z,6.90
2019-05-05T16:44:05.140Z,7.73
2019-05-05T16:47:13.629Z,8.53
2019-05-05T16:50:25.031Z,8.93
2019-05-05T16:53:36.188Z,9.97
2019-05-05T16:56:44.104Z,8.97
2019-05-05T16:59:53.526Z,7.20
2019-05-05T17:03:00.778Z,7.33
2019-05-05T17:06:08.345Z,9.53
2019-05-05T17:09:15.787Z,11.70
2019-05-05T17:12:24.348Z,11.53
2019-05-05T17:15:50.074Z,8.87
2019-05-05T17:19:15.685Z,9.90
2019-05-05T17:22:54.590Z,9.23
2019-05-05T17:26:02.280Z,11.10
2019-05-05T17:29:09.767Z,9.17
2019-05-05T17:32:18.385Z,10.87
2019-05-05T17:35:25.971Z,8.77
2019-05-05T17:38:34.096Z,7.90
2019-05-05T17:42:08.656Z,11.40
2019-05-05T17:45:31.513Z,13.97
2019-05-05T17:49:10.087Z,15.43
2019-05-05T17:52:26.690Z,8.63
2019-05-05T17:55:36.444Z,10.07
2019-05-05T17:58:44.467Z,8.70
2019-05-05T18:01:53.987Z,8.53
2019-05-05T18:05:01.639Z,9.27
2019-05-05T18:08:29.268Z,9.20
2019-05-05T18:11:54.156Z,9.70
2019-05-05T18:15:04.592Z,17.17
2019-05-05T18:18:13.797Z,8.50
2019-05-05T18:21:21.107Z,9.23
2019-05-05T18:24:28.540Z,8.90
2019-05-05T18:27:36.073Z,8.57
2019-05-05T18:30:44.373Z,9.00
2019-05-05T18:33:51.918Z,8.70
2019-05-05T18:36:59.557Z,9.10
2019-05-05T18:40:07.101Z,10.50
2019-05-05T18:43:19.713Z,14.50
2019-05-05T18:46:27.219Z,9.37
2019-05-05T18:49:34.785Z,14.03
2019-05-05T18:52:45.067Z,18.00
2019-05-05T18:55:51.505Z,16.87
2019-05-05T18:58:59.049Z,8.70
2019-05-05T19:02:16.518Z,6.33
2019-05-05T19:05:43.908Z,4.13
2019-05-05T19:08:55.126Z,4.40
2019-05-05T19:12:03.992Z,4.80
2019-05-05T19:15:13.624Z,5.43
2019-05-05T19:18:21.343Z,5.33
2019-05-05T19:21:35.951Z,5.73
2019-05-05T19:24:44.851Z,6.93
2019-05-05T19:27:53.668Z,6.93
2019-05-05T19:31:01.577Z,8.00
2019-05-05T19:34:09.117Z,8.10
2019-05-05T19:37:16.641Z,7.83
2019-05-05T19:40:24.400Z,7.57
2019-05-05T19:43:34.006Z,5.83
2019-05-05T19:46:49.661Z,6.70
2019-05-05T19:50:02.839Z,6.90
2019-05-05T19:53:35.211Z,7.50
2019-05-05T19:56:44.746Z,10.07
2019-05-05T19:59:54.156Z,10.00
2019-05-05T20:03:04.959Z,7.70
2019-05-05T20:06:10.657Z,9.30
2019-05-05T20:09:18.297Z,5.67
2019-05-05T20:12:25.882Z,7.30
2019-05-05T20:15:39.503Z,6.90
2019-05-05T20:18:50.117Z,4.87
2019-05-05T20:21:56.349Z,5.00
2019-05-05T20:25:04.418Z,4.80
2019-05-05T20:28:14.428Z,5.73
2019-05-05T20:31:23.708Z,5.60
2019-05-05T20:34:48.383Z,4.63
2019-05-05T20:38:00.926Z,4.80
2019-05-05T20:41:14.291Z,4.53
2019-05-05T20:44:22.035Z,5.57
2019-05-05T20:47:29.793Z,6.10
2019-05-05T20:50:37.206Z,5.17
2019-05-05T20:53:48.727Z,5.30
2019-05-05T20:56:54.797Z,6.60
2019-05-05T21:00:02.264Z,5.93
2019-05-05T21:03:11.463Z,6.47
2019-05-05T21:06:18.868Z,4.97
2019-05-05T21:09:26.397Z,4.50
2019-05-05T21:12:42.190Z,5.17
2019-05-05T21:15:45.061Z,5.00
2019-05-05T21:18:53.930Z,4.70
2019-05-05T21:22:16.035Z,4.63
2019-05-05T21:25:26.353Z,3.67
2019-05-05T21:28:33.773Z,4.67
2019-05-05T21:31:41.177Z,4.63
2019-05-05T21:34:48.608Z,4.80
2019-05-05T21:37:56.027Z,6.10
2019-05-05T21:41:04.209Z,6.33
2019-05-05T21:44:11.859Z,6.43
2019-05-05T21:47:19.279Z,7.33
2019-05-05T21:50:34.921Z,7.37
2019-05-05T21:53:53.325Z,6.30
2019-05-05T21:57:18.279Z,6.73
2019-05-05T22:00:44.517Z,7.17
2019-05-05T22:03:53.824Z,6.67
2019-05-05T22:07:03.588Z,5.53
2019-05-05T22:10:10.701Z,6.07
2019-05-05T22:13:18.592Z,7.80
2019-05-05T22:16:26.084Z,8.90
2019-05-05T22:19:36.487Z,10.50
2019-05-05T22:22:45.109Z,11.20
2019-05-05T22:25:54.356Z,14.03
2019-05-05T22:29:01.595Z,13.30
2019-05-05T22:32:09.031Z,14.87
2019-05-05T22:35:16.717Z,15.03
2019-05-05T22:38:24.629Z,13.87
2019-05-05T22:41:33.739Z,10.80
2019-05-05T22:44:41.435Z,9.03
2019-05-05T22:47:48.857Z,9.07
2019-05-05T22:50:56.595Z,10.17
2019-05-05T22:54:04.050Z,11.10
2019-05-05T22:57:13.882Z,12.20
2019-05-05T23:00:28.629Z,27.47
2019-05-05T23:03:40.675Z,22.70
2019-05-05T23:06:54.080Z,19.40
2019-05-05T23:10:04.457Z,18.13
2019-05-05T23:13:13.446Z,17.10
2019-05-05T23:16:26.988Z,17.90
2019-05-05T23:19:39.993Z,36.70
2019-05-05T23:22:54.832Z,55.47
2019-05-05T23:26:03.859Z,43.83
2019-05-05T23:29:11.506Z,31.70
2019-05-05T23:32:18.969Z,16.77
2019-05-05T23:35:26.478Z,17.63
2019-05-05T23:38:34.778Z,16.53
2019-05-05T23:41:43.325Z,24.80
2019-05-05T23:44:50.761Z,17.90
2019-05-05T23:47:58.178Z,16.13
2019-05-05T23:51:05.729Z,16.17
2019-05-05T23:54:13.655Z,15.93
2019-05-05T23:57:24.123Z,14.57
